sensor_id;sensor_type;location;lat;lon;timestamp;P1;durP1;ratioP1;P2;durP2;ratioP2
62687;SDS011;48752;51.056;17.056;2024-03-07T00:00:28;57.40;;;28.02;;
62687;SDS011;48752;51.056;17.056;2024-03-07T00:02:54;50.75;;;28.60;;
62687;SDS011;48752;51.056;17.056;2024-03-07T00:05:21;55.20;;;29.80;;
62687;SDS011;48752;51.056;17.056;2024-03-07T00:07:50;53.85;;;29.17;;
62687;SDS011;48752;51.056;17.056;2024-03-07T00:10:17;56.83;;;27.25;;
62687;SDS011;48752;51.056;17.056;2024-03-07T00:12:43;55.17;;;28.75;;
62687;SDS011;48752;51.056;17.056;2024-03-07T00:15:10;56.67;;;27.80;;
62687;SDS011;48752;51.056;17.056;2024-03-07T00:17:38;51.15;;;27.38;;
62687;SDS011;48752;51.056;17.056;2024-03-07T00:20:04;52.40;;;28.98;;
62687;SDS011;48752;51.056;17.056;2024-03-07T00:22:37;49.67;;;26.20;;
62687;SDS011;48752;51.056;17.056;2024-03-07T00:25:04;59.38;;;28.42;;
62687;SDS011;48752;51.056;17.056;2024-03-07T00:27:35;47.72;;;25.60;;
62687;SDS011;48752;51.056;17.056;2024-03-07T00:30:03;52.40;;;27.13;;
62687;SDS011;48752;51.056;17.056;2024-03-07T00:32:33;52.95;;;27.00;;
62687;SDS011;48752;51.056;17.056;2024-03-07T00:35:05;57.75;;;28.70;;
62687;SDS011;48752;51.056;17.056;2024-03-07T00:37:33;52.38;;;27.40;;
62687;SDS011;48752;51.056;17.056;2024-03-07T00:40:08;48.53;;;24.08;;
62687;SDS011;48752;51.056;17.056;2024-03-07T00:42:37;49.70;;;26.02;;
62687;SDS011;48752;51.056;17.056;2024-03-07T00:45:05;49.60;;;26.38;;
62687;SDS011;48752;51.056;17.056;2024-03-07T00:47:32;54.80;;;28.08;;
62687;SDS011;48752;51.056;17.056;2024-03-07T00:49:59;52.13;;;26.48;;
62687;SDS011;48752;51.056;17.056;2024-03-07T00:52:26;52.97;;;25.77;;
62687;SDS011;48752;51.056;17.056;2024-03-07T00:54:55;50.70;;;26.08;;
62687;SDS011;48752;51.056;17.056;2024-03-07T00:57:22;54.05;;;27.90;;
62687;SDS011;48752;51.056;17.056;2024-03-07T00:59:50;51.72;;;25.90;;
62687;SDS011;48752;51.056;17.056;2024-03-07T01:02:15;49.63;;;26.02;;
62687;SDS011;48752;51.056;17.056;2024-03-07T01:04:46;46.88;;;25.15;;
62687;SDS011;48752;51.056;17.056;2024-03-07T01:07:12;49.90;;;27.05;;
62687;SDS011;48752;51.056;17.056;2024-03-07T01:09:38;51.65;;;25.48;;
62687;SDS011;48752;51.056;17.056;2024-03-07T01:12:04;51.00;;;26.10;;
62687;SDS011;48752;51.056;17.056;2024-03-07T01:14:30;49.20;;;24.95;;
62687;SDS011;48752;51.056;17.056;2024-03-07T01:16:57;51.50;;;25.60;;
62687;SDS011;48752;51.056;17.056;2024-03-07T01:19:25;47.67;;;24.73;;
62687;SDS011;48752;51.056;17.056;2024-03-07T01:21:52;47.28;;;24.38;;
62687;SDS011;48752;51.056;17.056;2024-03-07T01:24:18;44.58;;;24.50;;
62687;SDS011;48752;51.056;17.056;2024-03-07T01:26:47;45.10;;;23.58;;
62687;SDS011;48752;51.056;17.056;2024-03-07T01:29:15;49.60;;;23.60;;
62687;SDS011;48752;51.056;17.056;2024-03-07T01:31:41;44.78;;;23.67;;
62687;SDS011;48752;51.056;17.056;2024-03-07T01:34:09;41.05;;;23.98;;
62687;SDS011;48752;51.056;17.056;2024-03-07T01:36:36;40.33;;;24.00;;
62687;SDS011;48752;51.056;17.056;2024-03-07T01:39:02;42.47;;;22.40;;
62687;SDS011;48752;51.056;17.056;2024-03-07T01:41:29;48.65;;;24.40;;
62687;SDS011;48752;51.056;17.056;2024-03-07T01:43:56;47.08;;;24.15;;
62687;SDS011;48752;51.056;17.056;2024-03-07T01:46:22;44.22;;;24.42;;
62687;SDS011;48752;51.056;17.056;2024-03-07T01:48:48;42.45;;;22.35;;
62687;SDS011;48752;51.056;17.056;2024-03-07T01:51:15;43.10;;;24.17;;
62687;SDS011;48752;51.056;17.056;2024-03-07T01:53:41;40.88;;;22.77;;
62687;SDS011;48752;51.056;17.056;2024-03-07T01:56:07;43.90;;;23.23;;
62687;SDS011;48752;51.056;17.056;2024-03-07T01:58:36;41.40;;;22.80;;
62687;SDS011;48752;51.056;17.056;2024-03-07T02:01:15;40.42;;;21.88;;
62687;SDS011;48752;51.056;17.056;2024-03-07T02:03:43;45.65;;;23.52;;
62687;SDS011;48752;51.056;17.056;2024-03-07T02:06:17;44.97;;;23.65;;
62687;SDS011;48752;51.056;17.056;2024-03-07T02:08:43;44.47;;;23.13;;
62687;SDS011;48752;51.056;17.056;2024-03-07T02:11:09;46.22;;;23.30;;
62687;SDS011;48752;51.056;17.056;2024-03-07T02:13:34;44.78;;;24.52;;
62687;SDS011;48752;51.056;17.056;2024-03-07T02:16:01;45.97;;;22.77;;
62687;SDS011;48752;51.056;17.056;2024-03-07T02:18:27;49.17;;;24.13;;
62687;SDS011;48752;51.056;17.056;2024-03-07T02:20:54;42.75;;;23.42;;
62687;SDS011;48752;51.056;17.056;2024-03-07T02:23:20;43.53;;;21.75;;
62687;SDS011;48752;51.056;17.056;2024-03-07T02:25:48;42.03;;;23.15;;
62687;SDS011;48752;51.056;17.056;2024-03-07T02:28:19;42.08;;;21.50;;
62687;SDS011;48752;51.056;17.056;2024-03-07T02:30:45;38.97;;;21.73;;
62687;SDS011;48752;51.056;17.056;2024-03-07T02:33:11;42.05;;;20.88;;
62687;SDS011;48752;51.056;17.056;2024-03-07T02:35:37;38.47;;;22.95;;
62687;SDS011;48752;51.056;17.056;2024-03-07T02:38:04;43.65;;;23.60;;
62687;SDS011;48752;51.056;17.056;2024-03-07T02:40:30;45.38;;;22.45;;
62687;SDS011;48752;51.056;17.056;2024-03-07T02:42:57;39.53;;;22.05;;
62687;SDS011;48752;51.056;17.056;2024-03-07T02:45:23;42.42;;;22.27;;
62687;SDS011;48752;51.056;17.056;2024-03-07T02:47:48;40.53;;;21.95;;
62687;SDS011;48752;51.056;17.056;2024-03-07T02:50:16;41.38;;;20.80;;
62687;SDS011;48752;51.056;17.056;2024-03-07T02:52:41;44.28;;;23.38;;
62687;SDS011;48752;51.056;17.056;2024-03-07T02:55:09;41.55;;;20.98;;
62687;SDS011;48752;51.056;17.056;2024-03-07T02:57:35;46.13;;;22.55;;
62687;SDS011;48752;51.056;17.056;2024-03-07T03:00:02;43.55;;;21.70;;
62687;SDS011;48752;51.056;17.056;2024-03-07T03:02:39;46.20;;;23.00;;
62687;SDS011;48752;51.056;17.056;2024-03-07T03:05:06;42.45;;;21.13;;
62687;SDS011;48752;51.056;17.056;2024-03-07T03:07:34;43.88;;;20.95;;
62687;SDS011;48752;51.056;17.056;2024-03-07T03:10:02;40.95;;;20.08;;
62687;SDS011;48752;51.056;17.056;2024-03-07T03:12:33;45.03;;;22.70;;
62687;SDS011;48752;51.056;17.056;2024-03-07T03:14:59;37.13;;;20.30;;
62687;SDS011;48752;51.056;17.056;2024-03-07T03:17:25;42.95;;;23.02;;
62687;SDS011;48752;51.056;17.056;2024-03-07T03:19:50;42.35;;;22.88;;
62687;SDS011;48752;51.056;17.056;2024-03-07T03:22:18;35.75;;;19.95;;
62687;SDS011;48752;51.056;17.056;2024-03-07T03:24:43;39.50;;;22.17;;
62687;SDS011;48752;51.056;17.056;2024-03-07T03:27:09;39.63;;;19.55;;
62687;SDS011;48752;51.056;17.056;2024-03-07T03:29:36;44.03;;;21.23;;
62687;SDS011;48752;51.056;17.056;2024-03-07T03:32:02;36.20;;;19.40;;
62687;SDS011;48752;51.056;17.056;2024-03-07T03:34:28;36.97;;;18.40;;
62687;SDS011;48752;51.056;17.056;2024-03-07T03:36:56;43.90;;;20.92;;
62687;SDS011;48752;51.056;17.056;2024-03-07T03:39:23;38.53;;;19.65;;
62687;SDS011;48752;51.056;17.056;2024-03-07T03:41:52;40.08;;;20.40;;
62687;SDS011;48752;51.056;17.056;2024-03-07T03:44:19;40.15;;;22.15;;
62687;SDS011;48752;51.056;17.056;2024-03-07T03:46:45;41.58;;;20.88;;
62687;SDS011;48752;51.056;17.056;2024-03-07T03:49:12;38.00;;;20.20;;
62687;SDS011;48752;51.056;17.056;2024-03-07T03:51:38;39.22;;;20.27;;
62687;SDS011;48752;51.056;17.056;2024-03-07T03:54:06;41.25;;;20.80;;
62687;SDS011;48752;51.056;17.056;2024-03-07T03:56:42;34.42;;;20.23;;
62687;SDS011;48752;51.056;17.056;2024-03-07T03:59:07;35.10;;;20.52;;
62687;SDS011;48752;51.056;17.056;2024-03-07T04:01:34;40.80;;;20.50;;
62687;SDS011;48752;51.056;17.056;2024-03-07T04:04:01;45.33;;;23.98;;
62687;SDS011;48752;51.056;17.056;2024-03-07T04:06:26;44.42;;;23.67;;
62687;SDS011;48752;51.056;17.056;2024-03-07T04:08:52;39.03;;;20.55;;
62687;SDS011;48752;51.056;17.056;2024-03-07T04:11:20;50.70;;;23.35;;
62687;SDS011;48752;51.056;17.056;2024-03-07T04:13:46;38.70;;;21.73;;
62687;SDS011;48752;51.056;17.056;2024-03-07T04:16:12;48.88;;;21.38;;
62687;SDS011;48752;51.056;17.056;2024-03-07T04:18:40;45.30;;;21.92;;
62687;SDS011;48752;51.056;17.056;2024-03-07T04:21:06;44.88;;;21.40;;
62687;SDS011;48752;51.056;17.056;2024-03-07T04:23:34;46.95;;;23.65;;
62687;SDS011;48752;51.056;17.056;2024-03-07T04:26:01;45.15;;;22.00;;
62687;SDS011;48752;51.056;17.056;2024-03-07T04:28:27;46.88;;;22.00;;
62687;SDS011;48752;51.056;17.056;2024-03-07T04:30:54;49.20;;;22.08;;
62687;SDS011;48752;51.056;17.056;2024-03-07T04:33:20;42.97;;;24.55;;
62687;SDS011;48752;51.056;17.056;2024-03-07T04:35:46;47.88;;;24.90;;
62687;SDS011;48752;51.056;17.056;2024-03-07T04:38:14;49.13;;;25.42;;
62687;SDS011;48752;51.056;17.056;2024-03-07T04:40:41;50.92;;;26.15;;
62687;SDS011;48752;51.056;17.056;2024-03-07T04:43:21;45.53;;;23.67;;
62687;SDS011;48752;51.056;17.056;2024-03-07T04:45:48;47.40;;;25.17;;
62687;SDS011;48752;51.056;17.056;2024-03-07T04:48:13;46.72;;;22.13;;
62687;SDS011;48752;51.056;17.056;2024-03-07T04:50:39;44.70;;;21.70;;
62687;SDS011;48752;51.056;17.056;2024-03-07T04:53:05;43.40;;;21.40;;
62687;SDS011;48752;51.056;17.056;2024-03-07T04:55:32;40.58;;;23.23;;
62687;SDS011;48752;51.056;17.056;2024-03-07T04:57:59;46.10;;;22.95;;
62687;SDS011;48752;51.056;17.056;2024-03-07T05:00:25;48.53;;;24.17;;
62687;SDS011;48752;51.056;17.056;2024-03-07T05:02:51;41.15;;;20.70;;
62687;SDS011;48752;51.056;17.056;2024-03-07T05:05:18;47.63;;;21.55;;
62687;SDS011;48752;51.056;17.056;2024-03-07T05:07:49;46.20;;;21.47;;
62687;SDS011;48752;51.056;17.056;2024-03-07T05:10:17;45.42;;;22.92;;
62687;SDS011;48752;51.056;17.056;2024-03-07T05:12:43;46.40;;;23.90;;
62687;SDS011;48752;51.056;17.056;2024-03-07T05:15:08;41.15;;;21.67;;
62687;SDS011;48752;51.056;17.056;2024-03-07T05:17:35;43.33;;;22.10;;
62687;SDS011;48752;51.056;17.056;2024-03-07T05:20:04;40.90;;;21.38;;
62687;SDS011;48752;51.056;17.056;2024-03-07T05:22:38;37.70;;;20.60;;
62687;SDS011;48752;51.056;17.056;2024-03-07T05:25:15;39.83;;;21.80;;
62687;SDS011;48752;51.056;17.056;2024-03-07T05:27:45;36.58;;;20.25;;
62687;SDS011;48752;51.056;17.056;2024-03-07T05:30:11;38.72;;;21.23;;
62687;SDS011;48752;51.056;17.056;2024-03-07T05:32:40;39.58;;;22.13;;
62687;SDS011;48752;51.056;17.056;2024-03-07T05:35:06;43.80;;;21.38;;
62687;SDS011;48752;51.056;17.056;2024-03-07T05:37:32;38.75;;;21.90;;
62687;SDS011;48752;51.056;17.056;2024-03-07T05:39:59;41.38;;;22.08;;
62687;SDS011;48752;51.056;17.056;2024-03-07T05:42:26;39.72;;;20.33;;
62687;SDS011;48752;51.056;17.056;2024-03-07T05:44:54;40.83;;;20.55;;
62687;SDS011;48752;51.056;17.056;2024-03-07T05:47:20;39.92;;;23.17;;
62687;SDS011;48752;51.056;17.056;2024-03-07T05:49:46;40.42;;;21.85;;
62687;SDS011;48752;51.056;17.056;2024-03-07T05:52:13;39.03;;;20.85;;
62687;SDS011;48752;51.056;17.056;2024-03-07T05:54:39;44.08;;;21.58;;
62687;SDS011;48752;51.056;17.056;2024-03-07T05:57:06;39.40;;;20.13;;
62687;SDS011;48752;51.056;17.056;2024-03-07T05:59:33;36.15;;;20.38;;
62687;SDS011;48752;51.056;17.056;2024-03-07T06:01:59;34.45;;;19.27;;
62687;SDS011;48752;51.056;17.056;2024-03-07T06:04:27;34.60;;;19.00;;
62687;SDS011;48752;51.056;17.056;2024-03-07T06:06:54;35.72;;;18.60;;
62687;SDS011;48752;51.056;17.056;2024-03-07T06:09:21;35.20;;;19.52;;
62687;SDS011;48752;51.056;17.056;2024-03-07T06:11:55;35.97;;;19.98;;
62687;SDS011;48752;51.056;17.056;2024-03-07T06:14:21;31.77;;;18.77;;
62687;SDS011;48752;51.056;17.056;2024-03-07T06:16:49;35.90;;;20.30;;
62687;SDS011;48752;51.056;17.056;2024-03-07T06:19:30;33.45;;;19.17;;
62687;SDS011;48752;51.056;17.056;2024-03-07T06:21:56;33.92;;;18.10;;
62687;SDS011;48752;51.056;17.056;2024-03-07T06:24:23;35.90;;;17.95;;
62687;SDS011;48752;51.056;17.056;2024-03-07T06:26:49;36.20;;;20.00;;
62687;SDS011;48752;51.056;17.056;2024-03-07T06:29:24;29.77;;;17.50;;
62687;SDS011;48752;51.056;17.056;2024-03-07T06:31:51;36.33;;;20.05;;
62687;SDS011;48752;51.056;17.056;2024-03-07T06:34:20;35.13;;;18.77;;
62687;SDS011;48752;51.056;17.056;2024-03-07T06:36:48;32.80;;;17.67;;
62687;SDS011;48752;51.056;17.056;2024-03-07T06:39:15;32.05;;;17.00;;
62687;SDS011;48752;51.056;17.056;2024-03-07T06:41:41;27.88;;;16.23;;
62687;SDS011;48752;51.056;17.056;2024-03-07T06:44:08;31.67;;;18.15;;
62687;SDS011;48752;51.056;17.056;2024-03-07T06:46:35;32.33;;;17.48;;
62687;SDS011;48752;51.056;17.056;2024-03-07T06:49:03;31.65;;;16.38;;
62687;SDS011;48752;51.056;17.056;2024-03-07T06:51:31;29.45;;;15.57;;
62687;SDS011;48752;51.056;17.056;2024-03-07T06:53:59;34.20;;;16.30;;
62687;SDS011;48752;51.056;17.056;2024-03-07T06:56:26;26.73;;;16.05;;
62687;SDS011;48752;51.056;17.056;2024-03-07T06:59:00;29.92;;;17.73;;
62687;SDS011;48752;51.056;17.056;2024-03-07T07:01:30;27.13;;;17.52;;
62687;SDS011;48752;51.056;17.056;2024-03-07T07:03:57;29.90;;;16.85;;
62687;SDS011;48752;51.056;17.056;2024-03-07T07:08:54;29.40;;;17.08;;
62687;SDS011;48752;51.056;17.056;2024-03-07T07:11:35;30.38;;;17.13;;
62687;SDS011;48752;51.056;17.056;2024-03-07T07:14:02;27.88;;;15.73;;
62687;SDS011;48752;51.056;17.056;2024-03-07T07:16:27;28.35;;;16.50;;
62687;SDS011;48752;51.056;17.056;2024-03-07T07:18:56;26.35;;;16.58;;
62687;SDS011;48752;51.056;17.056;2024-03-07T07:24:34;29.02;;;17.85;;
62687;SDS011;48752;51.056;17.056;2024-03-07T07:26:59;31.65;;;16.63;;
62687;SDS011;48752;51.056;17.056;2024-03-07T07:29:26;31.52;;;17.10;;
62687;SDS011;48752;51.056;17.056;2024-03-07T07:31:53;30.90;;;18.30;;
62687;SDS011;48752;51.056;17.056;2024-03-07T07:34:21;28.73;;;17.10;;
62687;SDS011;48752;51.056;17.056;2024-03-07T07:36:47;31.00;;;17.52;;
62687;SDS011;48752;51.056;17.056;2024-03-07T07:39:13;33.60;;;17.48;;
62687;SDS011;48752;51.056;17.056;2024-03-07T07:41:42;28.13;;;16.65;;
62687;SDS011;48752;51.056;17.056;2024-03-07T07:44:09;25.85;;;16.58;;
62687;SDS011;48752;51.056;17.056;2024-03-07T07:46:35;25.65;;;16.38;;
62687;SDS011;48752;51.056;17.056;2024-03-07T07:49:01;27.02;;;15.45;;
62687;SDS011;48752;51.056;17.056;2024-03-07T07:51:27;31.50;;;17.58;;
62687;SDS011;48752;51.056;17.056;2024-03-07T07:53:53;26.40;;;16.95;;
62687;SDS011;48752;51.056;17.056;2024-03-07T07:56:23;30.15;;;17.55;;
62687;SDS011;48752;51.056;17.056;2024-03-07T07:58:55;29.63;;;18.17;;
62687;SDS011;48752;51.056;17.056;2024-03-07T08:01:20;27.75;;;17.23;;
62687;SDS011;48752;51.056;17.056;2024-03-07T08:03:46;28.30;;;16.85;;
62687;SDS011;48752;51.056;17.056;2024-03-07T08:06:12;26.38;;;17.20;;
62687;SDS011;48752;51.056;17.056;2024-03-07T08:08:37;24.35;;;15.82;;
62687;SDS011;48752;51.056;17.056;2024-03-07T08:11:03;28.55;;;17.25;;
62687;SDS011;48752;51.056;17.056;2024-03-07T08:13:29;32.20;;;17.55;;
62687;SDS011;48752;51.056;17.056;2024-03-07T08:15:56;28.58;;;16.80;;
62687;SDS011;48752;51.056;17.056;2024-03-07T08:18:22;29.52;;;17.38;;
62687;SDS011;48752;51.056;17.056;2024-03-07T08:20:47;26.20;;;16.48;;
62687;SDS011;48752;51.056;17.056;2024-03-07T08:23:14;28.60;;;15.88;;
62687;SDS011;48752;51.056;17.056;2024-03-07T08:25:46;29.63;;;16.60;;
62687;SDS011;48752;51.056;17.056;2024-03-07T08:28:14;23.58;;;15.75;;
62687;SDS011;48752;51.056;17.056;2024-03-07T08:30:42;29.70;;;16.70;;
62687;SDS011;48752;51.056;17.056;2024-03-07T08:33:08;29.30;;;16.77;;
62687;SDS011;48752;51.056;17.056;2024-03-07T08:35:36;32.97;;;16.38;;
62687;SDS011;48752;51.056;17.056;2024-03-07T08:38:03;26.42;;;15.02;;
62687;SDS011;48752;51.056;17.056;2024-03-07T08:40:29;23.52;;;15.73;;
62687;SDS011;48752;51.056;17.056;2024-03-07T08:42:58;23.27;;;15.45;;
62687;SDS011;48752;51.056;17.056;2024-03-07T08:45:26;26.00;;;15.80;;
62687;SDS011;48752;51.056;17.056;2024-03-07T08:47:53;24.70;;;15.95;;
62687;SDS011;48752;51.056;17.056;2024-03-07T08:50:20;25.50;;;16.13;;
62687;SDS011;48752;51.056;17.056;2024-03-07T08:52:46;27.20;;;16.27;;
62687;SDS011;48752;51.056;17.056;2024-03-07T08:55:13;27.90;;;16.40;;
62687;SDS011;48752;51.056;17.056;2024-03-07T08:57:41;31.27;;;17.30;;
62687;SDS011;48752;51.056;17.056;2024-03-07T09:00:09;27.35;;;17.08;;
62687;SDS011;48752;51.056;17.056;2024-03-07T09:02:36;30.88;;;17.25;;
62687;SDS011;48752;51.056;17.056;2024-03-07T09:05:04;32.00;;;18.80;;
62687;SDS011;48752;51.056;17.056;2024-03-07T09:07:32;30.15;;;16.75;;
62687;SDS011;48752;51.056;17.056;2024-03-07T09:09:57;26.50;;;17.55;;
62687;SDS011;48752;51.056;17.056;2024-03-07T09:12:23;29.38;;;17.63;;
62687;SDS011;48752;51.056;17.056;2024-03-07T09:14:53;26.38;;;16.85;;
62687;SDS011;48752;51.056;17.056;2024-03-07T09:17:19;28.45;;;17.52;;
62687;SDS011;48752;51.056;17.056;2024-03-07T09:19:45;28.77;;;16.60;;
62687;SDS011;48752;51.056;17.056;2024-03-07T09:22:11;28.75;;;17.05;;
62687;SDS011;48752;51.056;17.056;2024-03-07T09:24:37;28.58;;;17.38;;
62687;SDS011;48752;51.056;17.056;2024-03-07T09:27:04;28.70;;;17.58;;
62687;SDS011;48752;51.056;17.056;2024-03-07T09:29:30;28.13;;;17.60;;
62687;SDS011;48752;51.056;17.056;2024-03-07T09:31:56;28.88;;;17.92;;
62687;SDS011;48752;51.056;17.056;2024-03-07T09:34:23;28.95;;;16.80;;
62687;SDS011;48752;51.056;17.056;2024-03-07T09:36:50;32.38;;;17.83;;
62687;SDS011;48752;51.056;17.056;2024-03-07T09:39:17;26.65;;;16.42;;
62687;SDS011;48752;51.056;17.056;2024-03-07T09:41:44;31.88;;;17.92;;
62687;SDS011;48752;51.056;17.056;2024-03-07T09:44:17;26.92;;;17.50;;
62687;SDS011;48752;51.056;17.056;2024-03-07T09:46:49;29.50;;;18.23;;
62687;SDS011;48752;51.056;17.056;2024-03-07T09:49:17;25.15;;;17.42;;
62687;SDS011;48752;51.056;17.056;2024-03-07T09:51:43;32.53;;;18.63;;
62687;SDS011;48752;51.056;17.056;2024-03-07T09:54:10;26.15;;;16.98;;
62687;SDS011;48752;51.056;17.056;2024-03-07T09:56:39;33.65;;;18.33;;
62687;SDS011;48752;51.056;17.056;2024-03-07T09:59:15;27.45;;;17.58;;
62687;SDS011;48752;51.056;17.056;2024-03-07T10:01:44;26.17;;;18.20;;
62687;SDS011;48752;51.056;17.056;2024-03-07T10:04:31;27.50;;;17.63;;
62687;SDS011;48752;51.056;17.056;2024-03-07T10:07:07;27.13;;;17.08;;
62687;SDS011;48752;51.056;17.056;2024-03-07T10:09:39;30.95;;;18.27;;
62687;SDS011;48752;51.056;17.056;2024-03-07T10:12:08;28.23;;;17.00;;
62687;SDS011;48752;51.056;17.056;2024-03-07T10:14:50;33.08;;;17.40;;
62687;SDS011;48752;51.056;17.056;2024-03-07T10:17:17;29.42;;;16.25;;
62687;SDS011;48752;51.056;17.056;2024-03-07T10:19:46;25.52;;;16.35;;
62687;SDS011;48752;51.056;17.056;2024-03-07T10:22:14;30.27;;;16.90;;
62687;SDS011;48752;51.056;17.056;2024-03-07T10:24:45;29.15;;;17.40;;
62687;SDS011;48752;51.056;17.056;2024-03-07T10:27:19;28.55;;;16.98;;
62687;SDS011;48752;51.056;17.056;2024-03-07T10:29:51;28.08;;;15.85;;
62687;SDS011;48752;51.056;17.056;2024-03-07T10:32:34;26.63;;;15.98;;
62687;SDS011;48752;51.056;17.056;2024-03-07T10:35:02;24.70;;;15.88;;
62687;SDS011;48752;51.056;17.056;2024-03-07T10:37:29;30.67;;;16.67;;
62687;SDS011;48752;51.056;17.056;2024-03-07T10:39:56;26.42;;;16.73;;
62687;SDS011;48752;51.056;17.056;2024-03-07T10:42:22;24.15;;;15.20;;
62687;SDS011;48752;51.056;17.056;2024-03-07T10:44:53;24.38;;;15.10;;
62687;SDS011;48752;51.056;17.056;2024-03-07T10:47:24;27.90;;;16.83;;
62687;SDS011;48752;51.056;17.056;2024-03-07T10:50:16;27.52;;;16.45;;
62687;SDS011;48752;51.056;17.056;2024-03-07T10:52:58;24.98;;;16.65;;
62687;SDS011;48752;51.056;17.056;2024-03-07T10:58:14;26.48;;;16.90;;
62687;SDS011;48752;51.056;17.056;2024-03-07T11:01:07;25.23;;;16.83;;
62687;SDS011;48752;51.056;17.056;2024-03-07T11:03:37;23.42;;;15.88;;
62687;SDS011;48752;51.056;17.056;2024-03-07T11:06:04;24.60;;;16.67;;
62687;SDS011;48752;51.056;17.056;2024-03-07T11:08:33;25.10;;;16.25;;
62687;SDS011;48752;51.056;17.056;2024-03-07T11:11:04;24.27;;;17.50;;
62687;SDS011;48752;51.056;17.056;2024-03-07T11:13:33;25.02;;;15.73;;
62687;SDS011;48752;51.056;17.056;2024-03-07T11:16:00;24.17;;;16.48;;
62687;SDS011;48752;51.056;17.056;2024-03-07T11:18:35;23.95;;;15.95;;
62687;SDS011;48752;51.056;17.056;2024-03-07T11:21:01;26.05;;;17.15;;
62687;SDS011;48752;51.056;17.056;2024-03-07T11:23:55;25.35;;;15.88;;
62687;SDS011;48752;51.056;17.056;2024-03-07T11:26:22;24.90;;;15.85;;
62687;SDS011;48752;51.056;17.056;2024-03-07T11:28:48;24.17;;;15.15;;
62687;SDS011;48752;51.056;17.056;2024-03-07T11:31:25;24.65;;;16.30;;
62687;SDS011;48752;51.056;17.056;2024-03-07T11:36:48;22.23;;;15.00;;
62687;SDS011;48752;51.056;17.056;2024-03-07T11:42:29;20.55;;;14.85;;
62687;SDS011;48752;51.056;17.056;2024-03-07T11:45:15;25.17;;;15.40;;
62687;SDS011;48752;51.056;17.056;2024-03-07T11:47:51;23.15;;;15.35;;
62687;SDS011;48752;51.056;17.056;2024-03-07T11:50:40;22.15;;;14.73;;
62687;SDS011;48752;51.056;17.056;2024-03-07T11:53:06;24.48;;;15.73;;
62687;SDS011;48752;51.056;17.056;2024-03-07T11:55:48;27.25;;;15.30;;
62687;SDS011;48752;51.056;17.056;2024-03-07T11:58:19;30.10;;;15.77;;
62687;SDS011;48752;51.056;17.056;2024-03-07T12:00:46;24.00;;;14.80;;
62687;SDS011;48752;51.056;17.056;2024-03-07T12:03:14;22.65;;;14.15;;
62687;SDS011;48752;51.056;17.056;2024-03-07T12:05:44;22.48;;;15.35;;
62687;SDS011;48752;51.056;17.056;2024-03-07T12:08:11;22.70;;;13.95;;
62687;SDS011;48752;51.056;17.056;2024-03-07T12:10:38;20.65;;;13.60;;
62687;SDS011;48752;51.056;17.056;2024-03-07T12:13:05;21.27;;;14.18;;
62687;SDS011;48752;51.056;17.056;2024-03-07T12:15:33;22.00;;;13.77;;
62687;SDS011;48752;51.056;17.056;2024-03-07T12:18:00;23.33;;;15.02;;
62687;SDS011;48752;51.056;17.056;2024-03-07T12:20:28;21.58;;;13.45;;
62687;SDS011;48752;51.056;17.056;2024-03-07T12:22:58;21.40;;;14.45;;
62687;SDS011;48752;51.056;17.056;2024-03-07T12:25:28;23.83;;;15.30;;
62687;SDS011;48752;51.056;17.056;2024-03-07T12:28:02;21.02;;;14.90;;
62687;SDS011;48752;51.056;17.056;2024-03-07T12:30:57;24.43;;;16.03;;
62687;SDS011;48752;51.056;17.056;2024-03-07T12:33:23;21.92;;;14.85;;
62687;SDS011;48752;51.056;17.056;2024-03-07T12:35:53;24.02;;;14.40;;
62687;SDS011;48752;51.056;17.056;2024-03-07T12:38:40;22.40;;;14.23;;
62687;SDS011;48752;51.056;17.056;2024-03-07T12:41:08;22.45;;;14.43;;
62687;SDS011;48752;51.056;17.056;2024-03-07T12:43:43;29.58;;;15.68;;
62687;SDS011;48752;51.056;17.056;2024-03-07T12:46:13;24.88;;;15.10;;
62687;SDS011;48752;51.056;17.056;2024-03-07T12:48:41;28.38;;;15.30;;
62687;SDS011;48752;51.056;17.056;2024-03-07T12:51:09;23.77;;;15.25;;
62687;SDS011;48752;51.056;17.056;2024-03-07T12:53:35;25.55;;;15.10;;
62687;SDS011;48752;51.056;17.056;2024-03-07T12:56:02;25.30;;;15.05;;
62687;SDS011;48752;51.056;17.056;2024-03-07T12:58:28;25.90;;;15.95;;
62687;SDS011;48752;51.056;17.056;2024-03-07T13:00:56;21.75;;;14.93;;
62687;SDS011;48752;51.056;17.056;2024-03-07T13:03:37;20.10;;;13.55;;
62687;SDS011;48752;51.056;17.056;2024-03-07T13:06:03;23.58;;;15.55;;
62687;SDS011;48752;51.056;17.056;2024-03-07T13:08:31;24.52;;;14.20;;
62687;SDS011;48752;51.056;17.056;2024-03-07T13:10:58;22.15;;;15.63;;
62687;SDS011;48752;51.056;17.056;2024-03-07T13:13:26;20.15;;;13.20;;
62687;SDS011;48752;51.056;17.056;2024-03-07T13:15:52;23.77;;;14.20;;
62687;SDS011;48752;51.056;17.056;2024-03-07T13:18:21;22.38;;;13.43;;
62687;SDS011;48752;51.056;17.056;2024-03-07T13:20:48;22.20;;;14.20;;
62687;SDS011;48752;51.056;17.056;2024-03-07T13:23:31;23.27;;;13.52;;
62687;SDS011;48752;51.056;17.056;2024-03-07T13:26:01;17.80;;;12.18;;
62687;SDS011;48752;51.056;17.056;2024-03-07T13:28:33;20.55;;;13.52;;
62687;SDS011;48752;51.056;17.056;2024-03-07T13:31:00;23.20;;;13.80;;
62687;SDS011;48752;51.056;17.056;2024-03-07T13:33:34;21.08;;;14.05;;
62687;SDS011;48752;51.056;17.056;2024-03-07T13:36:01;20.25;;;12.93;;
62687;SDS011;48752;51.056;17.056;2024-03-07T13:38:28;24.50;;;13.68;;
62687;SDS011;48752;51.056;17.056;2024-03-07T13:40:53;23.95;;;14.35;;
62687;SDS011;48752;51.056;17.056;2024-03-07T13:43:19;24.52;;;13.93;;
62687;SDS011;48752;51.056;17.056;2024-03-07T13:45:45;24.45;;;14.55;;
62687;SDS011;48752;51.056;17.056;2024-03-07T13:48:14;27.67;;;14.40;;
62687;SDS011;48752;51.056;17.056;2024-03-07T13:50:43;27.60;;;14.98;;
62687;SDS011;48752;51.056;17.056;2024-03-07T13:53:10;22.02;;;14.40;;
62687;SDS011;48752;51.056;17.056;2024-03-07T13:58:25;21.50;;;13.05;;
62687;SDS011;48752;51.056;17.056;2024-03-07T14:24:14;25.83;;;14.63;;
62687;SDS011;48752;51.056;17.056;2024-03-07T14:32:10;22.70;;;13.95;;
62687;SDS011;48752;51.056;17.056;2024-03-07T14:34:44;21.35;;;13.23;;
62687;SDS011;48752;51.056;17.056;2024-03-07T14:37:27;25.15;;;14.68;;
62687;SDS011;48752;51.056;17.056;2024-03-07T14:40:04;25.88;;;14.85;;
62687;SDS011;48752;51.056;17.056;2024-03-07T14:42:44;34.80;;;17.02;;
62687;SDS011;48752;51.056;17.056;2024-03-07T14:45:23;31.60;;;15.70;;
62687;SDS011;48752;51.056;17.056;2024-03-07T14:47:52;29.35;;;16.40;;
62687;SDS011;48752;51.056;17.056;2024-03-07T14:50:18;30.27;;;16.38;;
62687;SDS011;48752;51.056;17.056;2024-03-07T14:52:51;25.25;;;15.18;;
62687;SDS011;48752;51.056;17.056;2024-03-07T14:55:19;23.45;;;14.43;;
62687;SDS011;48752;51.056;17.056;2024-03-07T14:57:47;24.60;;;14.63;;
62687;SDS011;48752;51.056;17.056;2024-03-07T15:00:13;32.50;;;15.57;;
62687;SDS011;48752;51.056;17.056;2024-03-07T15:02:49;29.55;;;15.27;;